createdAt,value
2023-04-28T00:01:47.816Z,101123.66
2023-04-28T00:04:15.179Z,101115.06
2023-04-28T00:06:42.487Z,101139.78
2023-04-28T00:09:12.528Z,101149.09
2023-04-28T00:11:39.383Z,101144.00
2023-04-28T00:14:06.512Z,101131.16
2023-04-28T00:16:34.000Z,101142.16
2023-04-28T00:19:01.095Z,101122.25
2023-04-28T00:21:28.608Z,101123.56
2023-04-28T00:23:55.797Z,101129.53
2023-04-28T00:26:22.672Z,101126.06
2023-04-28T00:28:50.165Z,101117.16
2023-04-28T00:31:17.430Z,101112.94
2023-04-28T00:33:45.051Z,101114.66
2023-04-28T00:36:12.053Z,101102.41
2023-04-28T00:38:39.045Z,101084.78
2023-04-28T00:41:06.481Z,101081.25
2023-04-28T00:43:47.770Z,101089.06
2023-04-28T00:46:32.456Z,101074.44
2023-04-28T00:48:59.761Z,101091.19
2023-04-28T00:51:28.962Z,101081.53
2023-04-28T00:53:57.112Z,101088.69
2023-04-28T00:56:23.984Z,101058.41
2023-04-28T00:58:51.014Z,101059.38
2023-04-28T01:01:19.127Z,101054.66
2023-04-28T01:03:46.288Z,101066.47
2023-04-28T01:06:14.844Z,101051.59
2023-04-28T01:08:42.633Z,101053.66
2023-04-28T01:11:15.670Z,101039.84
2023-04-28T01:14:00.205Z,101045.50
2023-04-28T01:16:30.162Z,101049.69
2023-04-28T01:18:59.842Z,101017.91
2023-04-28T01:21:36.050Z,101061.47
2023-04-28T01:24:12.374Z,101040.69
2023-04-28T01:26:40.036Z,101037.84
2023-04-28T01:29:07.097Z,101028.63
2023-04-28T01:31:34.109Z,101034.50
2023-04-28T01:34:01.100Z,101038.88
2023-04-28T01:36:28.511Z,101021.72
2023-04-28T01:38:55.781Z,101032.94
2023-04-28T01:41:22.711Z,101022.03
2023-04-28T01:43:49.703Z,101024.22
2023-04-28T01:46:16.833Z,100986.59
2023-04-28T01:48:43.850Z,101015.59
2023-04-28T01:51:10.891Z,100987.16
2023-04-28T01:53:38.939Z,100993.88
2023-04-28T01:56:05.984Z,100982.19
2023-04-28T01:58:34.535Z,100998.25
2023-04-28T02:01:01.490Z,101010.63
2023-04-28T02:03:34.924Z,100980.72
2023-04-28T02:06:03.983Z,100997.41
2023-04-28T02:08:31.693Z,100989.75
2023-04-28T02:10:58.653Z,100991.66
2023-04-28T02:13:25.890Z,100966.28
2023-04-28T02:15:53.470Z,100983.34
2023-04-28T02:18:21.528Z,100971.28
2023-04-28T02:20:48.458Z,100987.75
2023-04-28T02:23:15.400Z,100983.44
2023-04-28T02:25:42.283Z,100951.53
2023-04-28T02:28:13.079Z,100962.34
2023-04-28T02:30:39.981Z,100968.31
2023-04-28T02:33:06.937Z,100962.44
2023-04-28T02:35:33.932Z,100938.53
2023-04-28T02:38:00.949Z,100949.34
2023-04-28T02:40:27.831Z,100944.09
2023-04-28T02:42:54.818Z,100941.00
2023-04-28T02:45:21.950Z,100950.38
2023-04-28T02:47:48.867Z,100932.84
2023-04-28T02:50:16.877Z,100946.25
2023-04-28T02:52:43.846Z,100930.56
2023-04-28T02:55:10.795Z,100916.91
2023-04-28T02:57:37.783Z,100934.09
2023-04-28T03:00:05.801Z,100911.72
2023-04-28T03:02:41.516Z,100893.75
2023-04-28T03:05:09.340Z,100909.31
2023-04-28T03:07:36.472Z,100908.47
2023-04-28T03:10:03.580Z,100916.41
2023-04-28T03:12:30.709Z,100898.03
2023-04-28T03:14:57.827Z,100870.34
2023-04-28T03:17:24.957Z,100875.28
2023-04-28T03:19:51.945Z,100894.31
2023-04-28T03:22:19.041Z,100891.63
2023-04-28T03:24:47.006Z,100895.63
2023-04-28T03:27:13.956Z,100891.44
2023-04-28T03:29:40.895Z,100870.56
2023-04-28T03:32:08.237Z,100883.56
2023-04-28T03:34:35.329Z,100884.34
2023-04-28T03:37:02.264Z,100887.69
2023-04-28T03:39:30.725Z,100874.88
2023-04-28T03:41:57.937Z,100883.56
2023-04-28T03:44:36.988Z,100880.03
2023-04-28T03:47:05.136Z,100882.91
2023-04-28T03:49:32.361Z,100875.16
2023-04-28T03:51:59.326Z,100878.31
2023-04-28T03:54:26.746Z,100849.31
2023-04-28T03:56:54.193Z,100855.34
2023-04-28T03:59:21.180Z,100866.25
2023-04-28T04:01:49.497Z,100844.91
2023-04-28T04:04:17.128Z,100860.47
2023-04-28T04:06:44.637Z,100852.84
2023-04-28T04:09:12.838Z,100849.69
2023-04-28T04:11:40.823Z,100836.19
2023-04-28T04:14:07.794Z,100848.81
2023-04-28T04:16:36.974Z,100847.28
2023-04-28T04:19:05.083Z,100825.00
2023-04-28T04:21:41.096Z,100829.28
2023-04-28T04:24:08.360Z,100835.91
2023-04-28T04:26:35.481Z,100824.03
2023-04-28T04:29:07.026Z,100831.69
2023-04-28T04:31:34.058Z,100812.19
2023-04-28T04:34:01.846Z,100830.03
2023-04-28T04:36:28.777Z,100813.31
2023-04-28T04:38:55.936Z,100831.47
2023-04-28T04:41:23.605Z,100822.66
2023-04-28T04:43:57.817Z,100815.50
2023-04-28T04:46:29.736Z,100822.22
2023-04-28T04:48:57.026Z,100821.06
2023-04-28T04:51:23.984Z,100816.38
2023-04-28T04:53:51.250Z,100802.09
2023-04-28T04:56:18.261Z,100794.19
2023-04-28T04:58:45.437Z,100822.13
2023-04-28T05:01:28.087Z,100805.56
2023-04-28T05:03:55.184Z,100812.41
2023-04-28T05:06:22.733Z,100786.69
2023-04-28T05:08:49.764Z,100793.66
2023-04-28T05:11:17.357Z,100806.88
2023-04-28T05:13:44.476Z,100803.34
2023-04-28T05:16:12.670Z,100791.09
2023-04-28T05:19:00.125Z,100808.00
2023-04-28T05:21:27.130Z,100795.38
2023-04-28T05:23:54.148Z,100790.19
2023-04-28T05:26:21.369Z,100761.97
2023-04-28T05:28:48.467Z,100800.78
2023-04-28T05:31:16.717Z,100799.50
2023-04-28T05:33:43.649Z,100796.81
2023-04-28T05:36:10.980Z,100784.88
2023-04-28T05:38:39.492Z,100772.97
2023-04-28T05:41:06.981Z,100801.59
2023-04-28T05:43:33.957Z,100792.41
2023-04-28T05:46:01.528Z,100810.13
2023-04-28T05:48:28.632Z,100803.59
2023-04-28T05:50:55.594Z,100793.91
2023-04-28T05:53:22.466Z,100809.53
2023-04-28T05:55:50.936Z,100800.59
2023-04-28T05:58:18.483Z,100804.69
2023-04-28T06:00:45.735Z,100785.69
2023-04-28T06:03:14.934Z,100781.94
2023-04-28T06:05:42.387Z,100790.97
2023-04-28T06:08:10.164Z,100783.56
2023-04-28T06:10:37.584Z,100773.78
2023-04-28T06:13:06.361Z,100793.13
2023-04-28T06:15:34.037Z,100779.06
2023-04-28T06:18:01.340Z,100784.75
2023-04-28T06:20:28.373Z,100775.81
2023-04-28T06:22:55.349Z,100780.84
2023-04-28T06:25:22.519Z,100777.53
2023-04-28T06:27:50.363Z,100778.03
2023-04-28T06:30:23.508Z,100773.09
2023-04-28T06:32:50.799Z,100795.38
2023-04-28T06:35:18.259Z,100795.13
2023-04-28T06:37:45.194Z,100772.78
2023-04-28T06:40:12.226Z,100770.72
2023-04-28T06:42:43.056Z,100766.88
2023-04-28T06:45:19.173Z,100761.56
2023-04-28T06:47:46.232Z,100770.28
2023-04-28T06:50:13.264Z,100760.50
2023-04-28T06:52:40.586Z,100762.13
2023-04-28T06:55:12.292Z,100771.13
2023-04-28T06:57:39.297Z,100769.06
2023-04-28T07:00:08.083Z,100750.44
2023-04-28T07:02:35.460Z,100759.94
2023-04-28T07:05:03.820Z,100765.00
2023-04-28T07:07:31.053Z,100743.63
2023-04-28T07:09:59.009Z,100738.94
2023-04-28T07:12:25.922Z,100761.34
2023-04-28T07:14:52.901Z,100741.31
2023-04-28T07:17:19.886Z,100761.69
2023-04-28T07:19:46.849Z,100743.41
2023-04-28T07:22:13.739Z,100746.66
2023-04-28T07:24:40.634Z,100742.72
2023-04-28T07:27:07.714Z,100752.44
2023-04-28T07:29:35.125Z,100737.53
2023-04-28T07:32:06.841Z,100718.50
2023-04-28T07:34:38.458Z,100738.50
2023-04-28T07:37:05.765Z,100736.63
2023-04-28T07:39:34.851Z,100734.06
2023-04-28T07:42:03.210Z,100713.28
2023-04-28T07:44:30.971Z,100724.88
2023-04-28T07:47:00.028Z,100728.72
2023-04-28T07:49:31.398Z,100696.97
2023-04-28T07:51:58.460Z,100700.19
2023-04-28T07:54:25.593Z,100721.75
2023-04-28T07:56:52.545Z,100720.44
2023-04-28T07:59:19.525Z,100718.25
2023-04-28T08:01:46.518Z,100711.41
2023-04-28T08:04:13.796Z,100711.03
2023-04-28T08:06:41.152Z,100711.88
2023-04-28T08:09:08.166Z,100712.97
2023-04-28T08:11:35.233Z,100716.03
2023-04-28T08:14:03.421Z,100681.34
2023-04-28T08:16:31.682Z,100695.00
2023-04-28T08:18:59.742Z,100692.56
2023-04-28T08:21:27.083Z,100699.16
2023-04-28T08:23:54.207Z,100692.03
2023-04-28T08:26:21.311Z,100684.44
2023-04-28T08:28:48.288Z,100694.47
2023-04-28T08:31:15.252Z,100702.53
2023-04-28T08:33:44.621Z,100685.06
2023-04-28T08:36:18.082Z,100708.09
2023-04-28T08:38:46.048Z,100698.13
2023-04-28T08:41:16.016Z,100689.66
2023-04-28T08:43:43.336Z,100681.84
2023-04-28T08:46:10.855Z,100696.88
2023-04-28T08:48:43.716Z,100713.56
2023-04-28T08:51:18.840Z,100715.06
2023-04-28T08:56:27.525Z,100709.44
2023-04-28T08:58:54.944Z,100718.63
2023-04-28T09:01:21.840Z,100696.09
2023-04-28T09:03:49.371Z,100716.25
2023-04-28T09:06:16.562Z,100713.78
2023-04-28T09:08:43.765Z,100717.72
2023-04-28T09:11:13.476Z,100715.50
2023-04-28T09:13:41.671Z,100721.41
2023-04-28T09:16:08.985Z,100726.31
2023-04-28T09:18:35.968Z,100706.22
2023-04-28T09:21:13.260Z,100697.13
2023-04-28T09:23:50.726Z,100704.03
2023-04-28T09:26:17.665Z,100709.25
2023-04-28T09:28:44.685Z,100706.69
2023-04-28T09:31:28.137Z,100708.34
2023-04-28T09:33:59.385Z,100721.78
2023-04-28T09:36:30.690Z,100715.97
2023-04-28T09:39:01.813Z,100721.94
2023-04-28T09:41:43.321Z,100710.00
2023-04-28T09:44:15.303Z,100718.19
2023-04-28T09:46:46.793Z,100678.91
2023-04-28T09:49:14.486Z,100689.34
2023-04-28T09:51:41.663Z,100688.13
2023-04-28T09:54:08.659Z,100681.25
2023-04-28T09:56:41.962Z,100651.88
2023-04-28T09:59:08.871Z,100683.06
2023-04-28T10:01:41.327Z,100647.81
2023-04-28T10:04:11.993Z,100666.84
2023-04-28T10:06:40.079Z,100676.81
2023-04-28T10:09:07.874Z,100665.16
2023-04-28T10:11:35.125Z,100657.31
2023-04-28T10:14:02.372Z,100657.47
2023-04-28T10:16:33.022Z,100654.00
2023-04-28T10:19:02.107Z,100655.00
2023-04-28T10:21:33.486Z,100626.22
2023-04-28T10:24:18.554Z,100642.06
2023-04-28T10:27:08.317Z,100639.63
2023-04-28T10:29:36.381Z,100627.66
2023-04-28T10:32:25.992Z,100646.03
2023-04-28T10:34:53.316Z,100649.59
2023-04-28T10:37:20.880Z,100639.19
2023-04-28T10:40:54.625Z,100637.47
2023-04-28T10:43:31.237Z,100639.75
2023-04-28T10:46:05.984Z,100626.63
2023-04-28T10:48:32.947Z,100628.75
2023-04-28T10:51:12.947Z,100626.63
2023-04-28T10:53:48.853Z,100619.47
2023-04-28T10:56:27.077Z,100617.59
2023-04-28T10:58:58.367Z,100618.13
2023-04-28T11:01:32.161Z,100605.91
2023-04-28T11:04:17.893Z,100617.69
2023-04-28T11:07:14.603Z,100599.16
2023-04-28T11:09:41.861Z,100612.69
2023-04-28T11:12:10.831Z,100593.59
2023-04-28T11:14:42.146Z,100600.84
2023-04-28T11:17:13.256Z,100602.84
2023-04-28T11:19:43.733Z,100603.69
2023-04-28T11:22:19.300Z,100605.22
2023-04-28T11:25:03.123Z,100600.91
2023-04-28T11:27:34.655Z,100595.31
2023-04-28T11:30:02.077Z,100578.19
2023-04-28T11:32:36.573Z,100579.59
2023-04-28T11:35:04.985Z,100583.97
2023-04-28T11:37:32.042Z,100570.69
2023-04-28T11:39:58.959Z,100589.19
2023-04-28T11:42:27.792Z,100563.91
2023-04-28T11:44:55.101Z,100564.25
2023-04-28T11:47:33.569Z,100572.59
2023-04-28T11:50:02.017Z,100570.22
2023-04-28T11:52:29.053Z,100557.28
2023-04-28T11:54:59.207Z,100565.22
2023-04-28T11:57:26.738Z,100563.50
2023-04-28T11:59:53.677Z,100561.28
2023-04-28T12:02:29.501Z,100555.78
2023-04-28T12:04:57.151Z,100544.31
2023-04-28T12:07:24.548Z,100561.00
2023-04-28T12:10:17.666Z,100537.66
2023-04-28T12:12:51.881Z,100549.34
2023-04-28T12:15:22.437Z,100539.16
2023-04-28T12:17:50.754Z,100554.88
2023-04-28T12:20:38.233Z,100520.09
2023-04-28T12:23:06.409Z,100530.06
2023-04-28T12:25:35.039Z,100519.03
2023-04-28T12:28:08.403Z,100509.72
2023-04-28T12:30:44.160Z,100530.81
2023-04-28T12:33:29.025Z,100529.47
2023-04-28T12:35:59.647Z,100514.44
2023-04-28T12:38:28.148Z,100546.34
2023-04-28T12:40:55.256Z,100539.50
2023-04-28T12:43:23.894Z,100541.53
2023-04-28T12:45:53.187Z,100541.50
2023-04-28T12:48:20.723Z,100535.22
2023-04-28T12:50:47.609Z,100545.13
2023-04-28T12:53:14.618Z,100525.53
2023-04-28T12:55:41.567Z,100529.69
2023-04-28T12:58:08.650Z,100530.47
2023-04-28T13:00:35.561Z,100539.78
2023-04-28T13:03:02.630Z,100529.38
2023-04-28T13:05:29.956Z,100538.50
2023-04-28T13:07:56.908Z,100519.03
2023-04-28T13:10:24.111Z,100511.84
2023-04-28T13:12:51.314Z,100512.28
2023-04-28T13:15:18.199Z,100513.88
2023-04-28T13:17:46.449Z,100523.13
2023-04-28T13:20:13.469Z,100523.38
2023-04-28T13:22:41.618Z,100521.13
2023-04-28T13:25:09.349Z,100510.78
2023-04-28T13:27:37.833Z,100523.13
2023-04-28T13:30:05.963Z,100504.94
2023-04-28T13:32:33.468Z,100507.22
2023-04-28T13:35:00.666Z,100506.13
2023-04-28T13:37:27.807Z,100496.25
2023-04-28T13:39:54.790Z,100500.63
2023-04-28T13:42:22.791Z,100492.03
2023-04-28T13:44:49.868Z,100490.81
2023-04-28T13:47:16.909Z,100489.84
2023-04-28T13:49:43.858Z,100486.50
2023-04-28T13:52:10.769Z,100465.66
2023-04-28T13:54:37.640Z,100475.13
2023-04-28T13:57:13.523Z,100483.38
2023-04-28T13:59:40.523Z,100460.66
2023-04-28T14:02:09.410Z,100481.97
2023-04-28T14:04:36.792Z,100471.97
2023-04-28T14:07:03.971Z,100478.94
2023-04-28T14:09:32.459Z,100475.28
2023-04-28T14:11:59.448Z,100480.72
2023-04-28T14:14:26.378Z,100481.38
2023-04-28T14:16:53.338Z,100461.94
2023-04-28T14:19:21.088Z,100466.56
2023-04-28T14:21:48.589Z,100459.44
2023-04-28T14:24:15.564Z,100456.97
2023-04-28T14:26:43.906Z,100460.13
2023-04-28T14:29:11.148Z,100451.22
2023-04-28T14:31:38.816Z,100459.06
2023-04-28T14:34:05.894Z,100444.44
2023-04-28T14:36:35.385Z,100437.81
2023-04-28T14:39:02.448Z,100419.03
2023-04-28T14:41:29.316Z,100441.00
2023-04-28T14:43:57.014Z,100422.31
2023-04-28T14:46:24.104Z,100423.97
2023-04-28T14:48:51.174Z,100437.06
2023-04-28T14:51:18.626Z,100436.41
2023-04-28T14:53:45.570Z,100427.34
2023-04-28T14:58:44.149Z,100415.81
2023-04-28T15:01:11.174Z,100433.31
2023-04-28T15:03:38.300Z,100432.66
2023-04-28T15:06:05.698Z,100432.78
2023-04-28T15:08:33.339Z,100443.03
2023-04-28T15:11:00.214Z,100417.75
2023-04-28T15:13:28.547Z,100429.66
2023-04-28T15:15:56.133Z,100422.31
2023-04-28T15:18:23.140Z,100431.84
2023-04-28T15:20:51.087Z,100436.44
2023-04-28T15:23:18.399Z,100420.91
2023-04-28T15:25:45.405Z,100429.28
2023-04-28T15:28:12.348Z,100433.38
2023-04-28T15:30:42.392Z,100438.28
2023-04-28T15:33:09.389Z,100405.38
2023-04-28T15:35:36.411Z,100426.06
2023-04-28T15:38:03.437Z,100416.44
2023-04-28T15:40:30.924Z,100436.59
2023-04-28T15:42:58.113Z,100420.09
2023-04-28T15:45:25.042Z,100416.84
2023-04-28T15:47:52.043Z,100428.22
2023-04-28T15:50:20.297Z,100432.09
2023-04-28T15:52:49.830Z,100421.00
2023-04-28T15:55:19.262Z,100411.78
2023-04-28T15:57:47.656Z,100412.56
2023-04-28T16:00:15.940Z,100414.25
2023-04-28T16:02:46.567Z,100408.44
2023-04-28T16:05:14.267Z,100399.22
2023-04-28T16:07:41.439Z,100376.50
2023-04-28T16:10:12.423Z,100405.28
2023-04-28T16:12:40.533Z,100402.63
2023-04-28T16:15:09.852Z,100404.88
2023-04-28T16:17:38.402Z,100404.19
2023-04-28T16:20:07.565Z,100404.50
2023-04-28T16:22:37.081Z,100396.38
2023-04-28T16:25:04.338Z,100400.94
2023-04-28T16:27:32.092Z,100407.47
2023-04-28T16:29:59.980Z,100400.88
2023-04-28T16:32:27.522Z,100408.94
2023-04-28T16:35:01.421Z,100382.03
2023-04-28T16:37:28.586Z,100404.44
2023-04-28T16:39:55.870Z,100384.13
2023-04-28T16:42:22.847Z,100405.72
2023-04-28T16:44:52.541Z,100390.59
2023-04-28T16:47:20.528Z,100394.47
2023-04-28T16:49:47.844Z,100408.31
2023-04-28T16:52:14.951Z,100409.13
2023-04-28T16:54:41.860Z,100395.72
2023-04-28T16:57:08.966Z,100407.03
2023-04-28T16:59:35.929Z,100390.94
2023-04-28T17:02:06.711Z,100398.22
2023-04-28T17:04:33.955Z,100389.69
2023-04-28T17:07:04.416Z,100384.56
2023-04-28T17:09:33.017Z,100371.25
2023-04-28T17:12:00.702Z,100383.38
2023-04-28T17:14:27.745Z,100390.03
2023-04-28T17:16:54.787Z,100388.50
2023-04-28T17:19:21.656Z,100379.06
2023-04-28T17:21:52.320Z,100383.88
2023-04-28T17:24:19.418Z,100360.94
2023-04-28T17:26:46.296Z,100372.19
2023-04-28T17:29:13.204Z,100369.09
2023-04-28T17:31:40.213Z,100383.28
2023-04-28T17:34:07.187Z,100383.47
2023-04-28T17:36:34.171Z,100371.81
2023-04-28T17:39:01.281Z,100390.41
2023-04-28T17:41:28.197Z,100388.25
2023-04-28T17:43:55.225Z,100386.97
2023-04-28T17:46:22.443Z,100371.69
2023-04-28T17:48:49.828Z,100385.78
2023-04-28T17:51:16.718Z,100371.38
2023-04-28T17:53:44.896Z,100373.63
2023-04-28T17:56:11.837Z,100391.59
2023-04-28T17:58:38.717Z,100389.34
2023-04-28T18:01:07.618Z,100399.59
2023-04-28T18:03:37.699Z,100402.44
2023-04-28T18:06:06.082Z,100378.06
2023-04-28T18:08:33.388Z,100403.00
2023-04-28T18:11:00.621Z,100390.38
2023-04-28T18:13:28.003Z,100385.66
2023-04-28T18:15:54.966Z,100387.00
2023-04-28T18:18:22.049Z,100402.78
2023-04-28T18:20:49.037Z,100398.69
2023-04-28T18:23:16.035Z,100398.25
2023-04-28T18:25:43.933Z,100409.09
2023-04-28T18:28:10.988Z,100405.50
2023-04-28T18:30:38.037Z,100401.97
2023-04-28T18:33:09.404Z,100404.81
2023-04-28T18:35:37.052Z,100398.81
2023-04-28T18:38:05.092Z,100393.00
2023-04-28T18:40:38.544Z,100389.91
2023-04-28T18:43:12.052Z,100392.72
2023-04-28T18:45:41.179Z,100401.69
2023-04-28T18:48:11.644Z,100393.88
2023-04-28T18:50:38.739Z,100409.25
2023-04-28T18:53:06.607Z,100399.84
2023-04-28T18:55:33.610Z,100411.78
2023-04-28T18:58:01.945Z,100386.34
2023-04-28T19:00:29.155Z,100403.00
2023-04-28T19:02:56.339Z,100404.38
2023-04-28T19:05:23.669Z,100402.69
2023-04-28T19:07:50.704Z,100414.22
2023-04-28T19:10:17.693Z,100410.97
2023-04-28T19:12:44.586Z,100410.53
2023-04-28T19:15:12.560Z,100408.09
2023-04-28T19:17:39.588Z,100414.81
2023-04-28T19:20:07.700Z,100424.06
2023-04-28T19:22:41.364Z,100428.19
2023-04-28T19:25:09.124Z,100430.91
2023-04-28T19:27:39.314Z,100430.75
2023-04-28T19:30:09.676Z,100424.94
2023-04-28T19:32:51.124Z,100444.72
2023-04-28T19:35:20.365Z,100440.88
2023-04-28T19:37:49.644Z,100417.81
2023-04-28T19:40:16.809Z,100432.38
2023-04-28T19:42:43.714Z,100440.06
2023-04-28T19:45:11.014Z,100432.22
2023-04-28T19:47:38.129Z,100446.34
2023-04-28T19:50:05.663Z,100434.91
2023-04-28T19:52:33.079Z,100452.31
2023-04-28T19:55:00.823Z,100440.19
2023-04-28T19:57:28.018Z,100450.75
2023-04-28T19:59:55.180Z,100435.19
2023-04-28T20:02:22.234Z,100445.63
2023-04-28T20:04:49.752Z,100443.31
2023-04-28T20:07:16.766Z,100448.88
2023-04-28T20:09:44.881Z,100461.25
2023-04-28T20:12:11.800Z,100371.47
2023-04-28T20:14:39.516Z,100471.41
2023-04-28T20:17:08.960Z,100466.97
2023-04-28T20:19:36.098Z,100447.03
2023-04-28T20:22:07.436Z,100464.28
2023-04-28T20:24:35.211Z,100458.41
2023-04-28T20:27:03.305Z,100446.75
2023-04-28T20:29:32.872Z,100461.69
2023-04-28T20:32:00.348Z,100460.41
2023-04-28T20:34:27.367Z,100451.16
2023-04-28T20:36:54.833Z,100470.38
2023-04-28T20:39:22.584Z,100466.25
2023-04-28T20:41:49.565Z,100468.25
2023-04-28T20:44:16.527Z,100467.25
2023-04-28T20:46:45.384Z,100472.69
2023-04-28T20:49:13.265Z,100471.94
2023-04-28T20:51:45.297Z,100466.69
2023-04-28T20:54:13.005Z,100472.81
2023-04-28T20:56:41.926Z,100472.50
2023-04-28T20:59:09.040Z,100478.09
2023-04-28T21:01:35.921Z,100470.53
2023-04-28T21:04:03.064Z,100467.81
2023-04-28T21:06:30.416Z,100466.53
2023-04-28T21:08:57.372Z,100464.41
2023-04-28T21:11:24.544Z,100480.19
2023-04-28T21:13:51.457Z,100453.88
2023-04-28T21:16:21.412Z,100463.97
2023-04-28T21:18:49.511Z,100480.91
2023-04-28T21:21:17.226Z,100449.88
2023-04-28T21:23:44.314Z,100461.97
2023-04-28T21:26:11.479Z,100484.06
2023-04-28T21:28:39.922Z,100460.25
2023-04-28T21:31:07.302Z,100458.69
2023-04-28T21:33:34.300Z,100476.63
2023-04-28T21:36:07.946Z,100488.31
2023-04-28T21:38:36.793Z,100486.59
2023-04-28T21:41:03.690Z,100466.22
2023-04-28T21:43:30.782Z,100474.50
2023-04-28T21:45:57.920Z,100482.59
2023-04-28T21:48:24.825Z,100470.75
2023-04-28T21:50:51.854Z,100495.13
2023-04-28T21:53:18.795Z,100493.69
2023-04-28T21:55:45.782Z,100498.22
2023-04-28T21:58:12.777Z,100482.00
2023-04-28T22:00:44.685Z,100524.97
2023-04-28T22:03:14.053Z,100514.72
2023-04-28T22:05:42.283Z,100499.19
2023-04-28T22:08:09.312Z,100503.00
2023-04-28T22:10:36.619Z,100484.22
2023-04-28T22:13:03.974Z,100509.59
2023-04-28T22:15:30.959Z,100496.78
2023-04-28T22:17:58.206Z,100525.41
2023-04-28T22:20:25.340Z,100508.13
2023-04-28T22:22:52.510Z,100518.25
2023-04-28T22:25:19.672Z,100532.44
2023-04-28T22:27:46.813Z,100514.63
2023-04-28T22:30:14.131Z,100478.31
2023-04-28T22:32:44.591Z,100531.03
2023-04-28T22:35:12.671Z,100529.16
2023-04-28T22:37:40.126Z,100509.78
2023-04-28T22:40:08.420Z,100521.03
2023-04-28T22:42:40.080Z,100537.41
2023-04-28T22:45:07.932Z,100529.31
2023-04-28T22:47:35.651Z,100551.25
2023-04-28T22:50:06.600Z,100539.13
2023-04-28T22:52:34.752Z,100529.88
2023-04-28T22:55:02.055Z,100539.22
2023-04-28T22:57:28.952Z,100518.03
2023-04-28T22:59:56.010Z,100514.41
2023-04-28T23:02:23.344Z,100530.69
2023-04-28T23:04:51.146Z,100542.81
2023-04-28T23:07:18.395Z,100544.63
2023-04-28T23:09:45.566Z,100539.59
2023-04-28T23:12:12.527Z,100535.56
2023-04-28T23:14:39.516Z,100508.56
2023-04-28T23:17:06.476Z,100537.28
2023-04-28T23:19:35.526Z,100516.84
2023-04-28T23:22:02.514Z,100543.84
2023-04-28T23:24:29.453Z,100526.34
2023-04-28T23:26:56.727Z,100523.22
2023-04-28T23:29:23.892Z,100532.78
2023-04-28T23:31:54.503Z,100520.81
2023-04-28T23:34:22.969Z,100545.59
2023-04-28T23:36:50.470Z,100536.88
2023-04-28T23:39:17.463Z,100524.63
2023-04-28T23:41:44.452Z,100553.09
2023-04-28T23:44:11.579Z,100553.72
2023-04-28T23:46:38.552Z,100529.00
2023-04-28T23:49:05.452Z,100534.41
2023-04-28T23:51:32.633Z,100527.22
2023-04-28T23:53:59.606Z,100532.28
2023-04-28T23:56:26.860Z,100529.00
2023-04-28T23:58:54.364Z,100542.88
